sensor_id;sensor_type;location;lat;lon;timestamp;pressure;altitude;pressure_sealevel;temperature;humidity
5284;BME280;15377;48.540;9.268;2022-10-26T00:00:38;97427.53;;;10.96;100.00
5284;BME280;15377;48.540;9.268;2022-10-26T00:03:04;97426.88;;;11.01;100.00
5284;BME280;15377;48.540;9.268;2022-10-26T00:05:32;97429.63;;;11.01;100.00
5284;BME280;15377;48.540;9.268;2022-10-26T00:07:58;97427.34;;;10.99;100.00
5284;BME280;15377;48.540;9.268;2022-10-26T00:10:23;97429.81;;;10.97;100.00
5284;BME280;15377;48.540;9.268;2022-10-26T00:12:49;97422.97;;;10.93;100.00
5284;BME280;15377;48.540;9.268;2022-10-26T00:15:15;97431.50;;;10.95;100.00
5284;BME280;15377;48.540;9.268;2022-10-26T00:17:40;97415.75;;;10.95;100.00
5284;BME280;15377;48.540;9.268;2022-10-26T00:20:06;97420.72;;;11.06;100.00
5284;BME280;15377;48.540;9.268;2022-10-26T00:22:31;97425.44;;;11.05;100.00
5284;BME280;15377;48.540;9.268;2022-10-26T00:24:57;97424.97;;;11.07;100.00
5284;BME280;15377;48.540;9.268;2022-10-26T00:27:22;97419.16;;;11.05;100.00
5284;BME280;15377;48.540;9.268;2022-10-26T00:29:47;97417.66;;;11.04;100.00
5284;BME280;15377;48.540;9.268;2022-10-26T00:32:13;97413.47;;;11.08;100.00
5284;BME280;15377;48.540;9.268;2022-10-26T00:34:38;97420.31;;;11.13;100.00
5284;BME280;15377;48.540;9.268;2022-10-26T00:37:03;97426.78;;;11.10;100.00
5284;BME280;15377;48.540;9.268;2022-10-26T00:39:29;97421.25;;;11.10;100.00
5284;BME280;15377;48.540;9.268;2022-10-26T00:41:54;97421.06;;;11.13;100.00
5284;BME280;15377;48.540;9.268;2022-10-26T00:49:57;97421.25;;;11.10;100.00
5284;BME280;15377;48.540;9.268;2022-10-26T00:52:26;97432.50;;;11.21;100.00
5284;BME280;15377;48.540;9.268;2022-10-26T00:54:53;97425.44;;;11.20;100.00
5284;BME280;15377;48.540;9.268;2022-10-26T00:57:19;97435.34;;;11.26;100.00
5284;BME280;15377;48.540;9.268;2022-10-26T00:59:45;97425.84;;;11.27;100.00
5284;BME280;15377;48.540;9.268;2022-10-26T01:02:11;97432.47;;;11.35;100.00
5284;BME280;15377;48.540;9.268;2022-10-26T01:04:37;97429.81;;;11.41;100.00
5284;BME280;15377;48.540;9.268;2022-10-26T01:07:04;97428.09;;;11.43;100.00
5284;BME280;15377;48.540;9.268;2022-10-26T01:09:31;97419.66;;;11.47;100.00
5284;BME280;15377;48.540;9.268;2022-10-26T01:11:57;97416.41;;;11.48;100.00
5284;BME280;15377;48.540;9.268;2022-10-26T01:14:23;97404.63;;;11.48;100.00
5284;BME280;15377;48.540;9.268;2022-10-26T01:17:16;97411.19;;;11.50;100.00
5284;BME280;15377;48.540;9.268;2022-10-26T01:22:50;97413.44;;;11.52;100.00
5284;BME280;15377;48.540;9.268;2022-10-26T01:28:24;97385.06;;;11.46;100.00
5284;BME280;15377;48.540;9.268;2022-10-26T01:30:57;97384.94;;;11.40;100.00
5284;BME280;15377;48.540;9.268;2022-10-26T01:33:30;97381.72;;;11.42;100.00
5284;BME280;15377;48.540;9.268;2022-10-26T01:36:23;97374.91;;;11.37;100.00
5284;BME280;15377;48.540;9.268;2022-10-26T01:38:56;97378.91;;;11.36;100.00
5284;BME280;15377;48.540;9.268;2022-10-26T01:41:27;97379.16;;;11.38;100.00
5284;BME280;15377;48.540;9.268;2022-10-26T01:44:06;97382.31;;;11.46;100.00
5284;BME280;15377;48.540;9.268;2022-10-26T01:46:36;97387.63;;;11.35;100.00
5284;BME280;15377;48.540;9.268;2022-10-26T01:49:05;97391.63;;;11.34;100.00
5284;BME280;15377;48.540;9.268;2022-10-26T01:51:33;97388.78;;;11.28;100.00
5284;BME280;15377;48.540;9.268;2022-10-26T01:53:59;97388.69;;;11.23;100.00
5284;BME280;15377;48.540;9.268;2022-10-26T01:56:28;97373.09;;;11.20;100.00
5284;BME280;15377;48.540;9.268;2022-10-26T02:07:01;97381.56;;;11.31;100.00
5284;BME280;15377;48.540;9.268;2022-10-26T02:11:57;97360.19;;;11.26;100.00
5284;BME280;15377;48.540;9.268;2022-10-26T02:14:35;97355.38;;;11.21;100.00
5284;BME280;15377;48.540;9.268;2022-10-26T02:17:05;97376.91;;;11.22;100.00
5284;BME280;15377;48.540;9.268;2022-10-26T02:19:46;97376.44;;;11.24;100.00
5284;BME280;15377;48.540;9.268;2022-10-26T02:22:18;97363.31;;;11.19;100.00
5284;BME280;15377;48.540;9.268;2022-10-26T02:24:47;97365.22;;;11.13;100.00
5284;BME280;15377;48.540;9.268;2022-10-26T02:27:21;97371.50;;;11.13;100.00
5284;BME280;15377;48.540;9.268;2022-10-26T02:29:48;97361.34;;;11.05;100.00
5284;BME280;15377;48.540;9.268;2022-10-26T02:32:15;97387.84;;;11.17;100.00
5284;BME280;15377;48.540;9.268;2022-10-26T02:34:44;97383.00;;;11.12;100.00
5284;BME280;15377;48.540;9.268;2022-10-26T02:37:11;97393.34;;;11.17;100.00
5284;BME280;15377;48.540;9.268;2022-10-26T02:39:39;97383.56;;;11.16;100.00
5284;BME280;15377;48.540;9.268;2022-10-26T02:42:07;97380.53;;;11.14;100.00
5284;BME280;15377;48.540;9.268;2022-10-26T02:44:41;97390.88;;;11.19;100.00
5284;BME280;15377;48.540;9.268;2022-10-26T02:47:08;97401.34;;;11.15;100.00
5284;BME280;15377;48.540;9.268;2022-10-26T02:49:34;97400.56;;;11.14;100.00
5284;BME280;15377;48.540;9.268;2022-10-26T02:55:02;97422.59;;;11.14;100.00
5284;BME280;15377;48.540;9.268;2022-10-26T02:57:36;97426.31;;;11.11;100.00
5284;BME280;15377;48.540;9.268;2022-10-26T03:00:06;97428.69;;;11.18;100.00
5284;BME280;15377;48.540;9.268;2022-10-26T03:02:31;97430.38;;;11.30;100.00
5284;BME280;15377;48.540;9.268;2022-10-26T03:05:06;97425.66;;;11.31;100.00
5284;BME280;15377;48.540;9.268;2022-10-26T03:07:33;97428.03;;;11.38;100.00
5284;BME280;15377;48.540;9.268;2022-10-26T03:09:59;97425.25;;;11.38;100.00
5284;BME280;15377;48.540;9.268;2022-10-26T03:12:24;97424.31;;;11.41;100.00
5284;BME280;15377;48.540;9.268;2022-10-26T03:14:49;97422.19;;;11.36;100.00
5284;BME280;15377;48.540;9.268;2022-10-26T03:17:14;97441.97;;;11.49;100.00
5284;BME280;15377;48.540;9.268;2022-10-26T03:19:40;97439.41;;;11.45;100.00
5284;BME280;15377;48.540;9.268;2022-10-26T03:22:05;97458.50;;;11.49;100.00
5284;BME280;15377;48.540;9.268;2022-10-26T03:24:30;97465.53;;;11.50;100.00
5284;BME280;15377;48.540;9.268;2022-10-26T03:26:56;97486.66;;;11.53;100.00
5284;BME280;15377;48.540;9.268;2022-10-26T03:29:21;97490.25;;;11.59;100.00
5284;BME280;15377;48.540;9.268;2022-10-26T03:31:46;97505.38;;;11.63;100.00
5284;BME280;15377;48.540;9.268;2022-10-26T03:34:13;97507.09;;;11.61;100.00
5284;BME280;15377;48.540;9.268;2022-10-26T03:36:38;97495.38;;;11.66;100.00
5284;BME280;15377;48.540;9.268;2022-10-26T03:39:03;97467.63;;;11.69;100.00
5284;BME280;15377;48.540;9.268;2022-10-26T03:41:29;97471.44;;;11.72;100.00
5284;BME280;15377;48.540;9.268;2022-10-26T03:43:54;97464.56;;;11.82;100.00
5284;BME280;15377;48.540;9.268;2022-10-26T03:46:19;97466.09;;;11.83;100.00
5284;BME280;15377;48.540;9.268;2022-10-26T03:48:45;97459.81;;;11.82;100.00
5284;BME280;15377;48.540;9.268;2022-10-26T03:51:10;97461.53;;;11.80;100.00
5284;BME280;15377;48.540;9.268;2022-10-26T03:53:35;97458.50;;;11.78;100.00
5284;BME280;15377;48.540;9.268;2022-10-26T03:56:01;97472.75;;;11.76;100.00
5284;BME280;15377;48.540;9.268;2022-10-26T03:58:26;97480.75;;;11.74;100.00
5284;BME280;15377;48.540;9.268;2022-10-26T04:00:51;97477.13;;;11.83;100.00
5284;BME280;15377;48.540;9.268;2022-10-26T04:03:17;97479.22;;;11.88;100.00
5284;BME280;15377;48.540;9.268;2022-10-26T04:05:42;97453.72;;;11.93;100.00
5284;BME280;15377;48.540;9.268;2022-10-26T04:08:08;97426.63;;;11.91;100.00
5284;BME280;15377;48.540;9.268;2022-10-26T04:10:33;97417.03;;;11.87;100.00
5284;BME280;15377;48.540;9.268;2022-10-26T04:12:59;97430.03;;;11.86;100.00
5284;BME280;15377;48.540;9.268;2022-10-26T04:15:26;97427.28;;;11.86;100.00
5284;BME280;15377;48.540;9.268;2022-10-26T04:17:56;97436.06;;;11.85;100.00
5284;BME280;15377;48.540;9.268;2022-10-26T04:20:22;97436.44;;;11.78;100.00
5284;BME280;15377;48.540;9.268;2022-10-26T04:22:47;97440.72;;;11.79;100.00
5284;BME280;15377;48.540;9.268;2022-10-26T04:25:12;97441.56;;;11.85;100.00
5284;BME280;15377;48.540;9.268;2022-10-26T04:27:38;97434.16;;;11.76;100.00
5284;BME280;15377;48.540;9.268;2022-10-26T04:30:03;97446.78;;;11.83;100.00
5284;BME280;15377;48.540;9.268;2022-10-26T04:32:32;97449.00;;;11.79;100.00
5284;BME280;15377;48.540;9.268;2022-10-26T04:34:57;97442.16;;;11.74;100.00
5284;BME280;15377;48.540;9.268;2022-10-26T04:37:22;97443.47;;;11.79;100.00
5284;BME280;15377;48.540;9.268;2022-10-26T04:39:48;97438.34;;;11.72;100.00
5284;BME280;15377;48.540;9.268;2022-10-26T04:42:13;97439.13;;;11.72;100.00
5284;BME280;15377;48.540;9.268;2022-10-26T04:44:38;97433.13;;;11.74;100.00
5284;BME280;15377;48.540;9.268;2022-10-26T04:47:04;97427.34;;;11.72;100.00
5284;BME280;15377;48.540;9.268;2022-10-26T04:49:29;97439.41;;;11.74;100.00
5284;BME280;15377;48.540;9.268;2022-10-26T04:51:54;97442.34;;;11.71;100.00
5284;BME280;15377;48.540;9.268;2022-10-26T04:54:20;97437.78;;;11.68;100.00
5284;BME280;15377;48.540;9.268;2022-10-26T04:56:45;97430.19;;;11.63;100.00
5284;BME280;15377;48.540;9.268;2022-10-26T04:59:10;97435.72;;;11.63;100.00
5284;BME280;15377;48.540;9.268;2022-10-26T05:01:36;97429.03;;;11.55;100.00
5284;BME280;15377;48.540;9.268;2022-10-26T05:04:01;97433.69;;;11.49;100.00
5284;BME280;15377;48.540;9.268;2022-10-26T05:06:26;97438.94;;;11.47;100.00
5284;BME280;15377;48.540;9.268;2022-10-26T05:08:51;97438.53;;;11.39;100.00
5284;BME280;15377;48.540;9.268;2022-10-26T05:11:17;97428.03;;;11.38;100.00
5284;BME280;15377;48.540;9.268;2022-10-26T05:13:42;97443.03;;;11.37;100.00
5284;BME280;15377;48.540;9.268;2022-10-26T05:16:08;97439.69;;;11.33;100.00
5284;BME280;15377;48.540;9.268;2022-10-26T05:18:33;97446.72;;;11.34;100.00
5284;BME280;15377;48.540;9.268;2022-10-26T05:20:58;97440.84;;;11.26;100.00
5284;BME280;15377;48.540;9.268;2022-10-26T05:23:24;97436.28;;;11.23;100.00
5284;BME280;15377;48.540;9.268;2022-10-26T05:25:49;97436.94;;;11.18;100.00
5284;BME280;15377;48.540;9.268;2022-10-26T05:28:15;97433.44;;;11.18;100.00
5284;BME280;15377;48.540;9.268;2022-10-26T05:30:42;97437.03;;;11.24;100.00
5284;BME280;15377;48.540;9.268;2022-10-26T05:33:10;97442.38;;;11.27;100.00
5284;BME280;15377;48.540;9.268;2022-10-26T05:35:36;97446.16;;;11.30;100.00
5284;BME280;15377;48.540;9.268;2022-10-26T05:38:08;97447.00;;;11.36;100.00
5284;BME280;15377;48.540;9.268;2022-10-26T05:40:33;97436.47;;;11.34;100.00
5284;BME280;15377;48.540;9.268;2022-10-26T05:42:59;97445.38;;;11.44;100.00
5284;BME280;15377;48.540;9.268;2022-10-26T05:45:25;97443.47;;;11.50;100.00
5284;BME280;15377;48.540;9.268;2022-10-26T05:47:51;97440.44;;;11.48;100.00
5284;BME280;15377;48.540;9.268;2022-10-26T05:50:16;97442.53;;;11.53;100.00
5284;BME280;15377;48.540;9.268;2022-10-26T05:52:45;97457.53;;;11.52;100.00
5284;BME280;15377;48.540;9.268;2022-10-26T05:55:15;97443.94;;;11.48;100.00
5284;BME280;15377;48.540;9.268;2022-10-26T05:57:42;97441.19;;;11.48;100.00
5284;BME280;15377;48.540;9.268;2022-10-26T06:00:14;97462.31;;;11.51;100.00
5284;BME280;15377;48.540;9.268;2022-10-26T06:05:27;97476.16;;;11.57;100.00
5284;BME280;15377;48.540;9.268;2022-10-26T06:07:52;97482.28;;;11.61;100.00
5284;BME280;15377;48.540;9.268;2022-10-26T06:10:18;97484.38;;;11.66;100.00
5284;BME280;15377;48.540;9.268;2022-10-26T06:12:44;97491.19;;;11.70;100.00
5284;BME280;15377;48.540;9.268;2022-10-26T06:15:19;97485.88;;;11.67;100.00
5284;BME280;15377;48.540;9.268;2022-10-26T06:23:39;97498.81;;;11.75;100.00
5284;BME280;15377;48.540;9.268;2022-10-26T06:26:20;97505.06;;;11.76;100.00
5284;BME280;15377;48.540;9.268;2022-10-26T06:31:44;97491.88;;;11.80;100.00
5284;BME280;15377;48.540;9.268;2022-10-26T06:34:11;97502.59;;;11.92;100.00
5284;BME280;15377;48.540;9.268;2022-10-26T06:36:41;97493.84;;;11.94;100.00
5284;BME280;15377;48.540;9.268;2022-10-26T06:39:09;97499.53;;;12.05;100.00
5284;BME280;15377;48.540;9.268;2022-10-26T06:41:36;97504.44;;;12.15;100.00
5284;BME280;15377;48.540;9.268;2022-10-26T06:44:04;97518.69;;;12.28;100.00
5284;BME280;15377;48.540;9.268;2022-10-26T06:46:45;97521.06;;;12.35;100.00
5284;BME280;15377;48.540;9.268;2022-10-26T06:49:34;97528.16;;;12.42;100.00
5284;BME280;15377;48.540;9.268;2022-10-26T06:54:53;97533.69;;;12.62;100.00
5284;BME280;15377;48.540;9.268;2022-10-26T06:57:21;97529.19;;;12.79;100.00
5284;BME280;15377;48.540;9.268;2022-10-26T06:59:52;97539.25;;;12.82;100.00
5284;BME280;15377;48.540;9.268;2022-10-26T07:02:18;97546.84;;;12.87;100.00
5284;BME280;15377;48.540;9.268;2022-10-26T07:04:44;97552.25;;;12.96;100.00
5284;BME280;15377;48.540;9.268;2022-10-26T07:07:26;97550.09;;;13.05;100.00
5284;BME280;15377;48.540;9.268;2022-10-26T07:09:53;97553.63;;;13.06;100.00
5284;BME280;15377;48.540;9.268;2022-10-26T07:12:18;97559.69;;;13.10;100.00
5284;BME280;15377;48.540;9.268;2022-10-26T07:14:43;97550.56;;;13.24;100.00
5284;BME280;15377;48.540;9.268;2022-10-26T07:17:09;97565.47;;;13.32;100.00
5284;BME280;15377;48.540;9.268;2022-10-26T07:19:37;97572.25;;;13.51;100.00
5284;BME280;15377;48.540;9.268;2022-10-26T07:22:04;97572.56;;;13.58;100.00
5284;BME280;15377;48.540;9.268;2022-10-26T07:24:30;97573.22;;;13.73;100.00
5284;BME280;15377;48.540;9.268;2022-10-26T07:26:57;97576.59;;;13.83;100.00
5284;BME280;15377;48.540;9.268;2022-10-26T07:29:24;97586.44;;;13.89;100.00
5284;BME280;15377;48.540;9.268;2022-10-26T07:31:50;97587.03;;;13.99;100.00
5284;BME280;15377;48.540;9.268;2022-10-26T07:34:16;97589.91;;;14.10;100.00
5284;BME280;15377;48.540;9.268;2022-10-26T07:36:42;97595.28;;;14.19;100.00
5284;BME280;15377;48.540;9.268;2022-10-26T07:39:08;97588.06;;;14.27;100.00
5284;BME280;15377;48.540;9.268;2022-10-26T07:41:33;97600.75;;;14.39;100.00
5284;BME280;15377;48.540;9.268;2022-10-26T07:43:58;97603.63;;;14.55;100.00
5284;BME280;15377;48.540;9.268;2022-10-26T07:46:24;97603.63;;;14.55;100.00
5284;BME280;15377;48.540;9.268;2022-10-26T07:48:50;97621.63;;;14.71;100.00
5284;BME280;15377;48.540;9.268;2022-10-26T07:51:15;97615.16;;;14.84;100.00
5284;BME280;15377;48.540;9.268;2022-10-26T07:53:41;97616.72;;;14.96;100.00
5284;BME280;15377;48.540;9.268;2022-10-26T07:56:07;97628.59;;;15.02;100.00
5284;BME280;15377;48.540;9.268;2022-10-26T07:58:33;97635.69;;;15.09;100.00
5284;BME280;15377;48.540;9.268;2022-10-26T08:03:31;97641.81;;;15.24;100.00
5284;BME280;15377;48.540;9.268;2022-10-26T08:05:57;97637.38;;;15.37;100.00
5284;BME280;15377;48.540;9.268;2022-10-26T08:08:22;97638.94;;;15.49;100.00
5284;BME280;15377;48.540;9.268;2022-10-26T08:10:47;97638.78;;;15.69;100.00
5284;BME280;15377;48.540;9.268;2022-10-26T08:13:13;97643.09;;;15.87;100.00
5284;BME280;15377;48.540;9.268;2022-10-26T08:15:39;97655.50;;;16.02;100.00
5284;BME280;15377;48.540;9.268;2022-10-26T08:18:05;97651.22;;;16.12;100.00
5284;BME280;15377;48.540;9.268;2022-10-26T08:20:31;97657.06;;;16.25;100.00
5284;BME280;15377;48.540;9.268;2022-10-26T08:22:57;97655.50;;;16.24;100.00
5284;BME280;15377;48.540;9.268;2022-10-26T08:25:22;97662.63;;;16.36;100.00
5284;BME280;15377;48.540;9.268;2022-10-26T08:27:48;97666.13;;;16.31;100.00
5284;BME280;15377;48.540;9.268;2022-10-26T08:30:13;97672.47;;;16.32;100.00
5284;BME280;15377;48.540;9.268;2022-10-26T08:32:39;97673.72;;;16.36;100.00
5284;BME280;15377;48.540;9.268;2022-10-26T08:35:07;97680.25;;;16.22;100.00
5284;BME280;15377;48.540;9.268;2022-10-26T08:37:32;97677.25;;;16.20;100.00
5284;BME280;15377;48.540;9.268;2022-10-26T08:39:58;97688.09;;;16.24;100.00
5284;BME280;15377;48.540;9.268;2022-10-26T08:42:36;97690.63;;;16.27;100.00
5284;BME280;15377;48.540;9.268;2022-10-26T08:45:17;97689.38;;;16.28;100.00
5284;BME280;15377;48.540;9.268;2022-10-26T08:47:51;97691.41;;;16.33;100.00
5284;BME280;15377;48.540;9.268;2022-10-26T08:55:19;97704.84;;;16.68;100.00
5284;BME280;15377;48.540;9.268;2022-10-26T08:57:46;97706.09;;;16.83;100.00
5284;BME280;15377;48.540;9.268;2022-10-26T09:00:19;97708.09;;;17.10;100.00
5284;BME280;15377;48.540;9.268;2022-10-26T09:02:51;97721.75;;;17.19;100.00
5284;BME280;15377;48.540;9.268;2022-10-26T09:05:31;97714.63;;;17.51;100.00
5284;BME280;15377;48.540;9.268;2022-10-26T09:10:33;97732.19;;;17.92;100.00
5284;BME280;15377;48.540;9.268;2022-10-26T09:21:50;97759.53;;;18.51;100.00
5284;BME280;15377;48.540;9.268;2022-10-26T09:24:30;97758.28;;;18.46;100.00
5284;BME280;15377;48.540;9.268;2022-10-26T09:29:27;97762.28;;;18.56;100.00
5284;BME280;15377;48.540;9.268;2022-10-26T09:31:55;97758.44;;;18.59;100.00
5284;BME280;15377;48.540;9.268;2022-10-26T09:34:47;97750.47;;;18.39;100.00
5284;BME280;15377;48.540;9.268;2022-10-26T09:37:28;97760.13;;;18.33;100.00
5284;BME280;15377;48.540;9.268;2022-10-26T09:42:50;97770.41;;;17.92;100.00
5284;BME280;15377;48.540;9.268;2022-10-26T09:47:53;97772.53;;;17.64;100.00
5284;BME280;15377;48.540;9.268;2022-10-26T09:50:28;97762.94;;;17.59;100.00
5284;BME280;15377;48.540;9.268;2022-10-26T09:52:56;97763.66;;;17.65;100.00
5284;BME280;15377;48.540;9.268;2022-10-26T09:55:21;97771.19;;;17.87;100.00
5284;BME280;15377;48.540;9.268;2022-10-26T09:57:50;97773.38;;;18.10;100.00
5284;BME280;15377;48.540;9.268;2022-10-26T10:00:19;97778.09;;;18.37;100.00
5284;BME280;15377;48.540;9.268;2022-10-26T10:02:49;97794.38;;;18.68;100.00
5284;BME280;15377;48.540;9.268;2022-10-26T10:08:09;97800.06;;;18.92;100.00
5284;BME280;15377;48.540;9.268;2022-10-26T10:10:35;97788.69;;;18.84;100.00
5284;BME280;15377;48.540;9.268;2022-10-26T10:13:14;97791.44;;;18.90;100.00
5284;BME280;15377;48.540;9.268;2022-10-26T10:15:50;97805.94;;;19.18;100.00
5284;BME280;15377;48.540;9.268;2022-10-26T10:18:20;97795.47;;;19.29;100.00
5284;BME280;15377;48.540;9.268;2022-10-26T10:20:54;97808.13;;;19.60;100.00
5284;BME280;15377;48.540;9.268;2022-10-26T10:23:48;97818.59;;;19.78;100.00
5284;BME280;15377;48.540;9.268;2022-10-26T10:26:14;97806.09;;;19.60;100.00
5284;BME280;15377;48.540;9.268;2022-10-26T10:28:40;97806.91;;;19.55;100.00
5284;BME280;15377;48.540;9.268;2022-10-26T10:31:30;97812.78;;;19.52;100.00
5284;BME280;15377;48.540;9.268;2022-10-26T10:33:56;97820.81;;;19.31;100.00
5284;BME280;15377;48.540;9.268;2022-10-26T10:36:24;97807.94;;;19.23;100.00
5284;BME280;15377;48.540;9.268;2022-10-26T10:38:51;97800.34;;;19.18;100.00
5284;BME280;15377;48.540;9.268;2022-10-26T10:43:53;97814.06;;;19.16;100.00
5284;BME280;15377;48.540;9.268;2022-10-26T10:46:22;97817.75;;;19.35;100.00
5284;BME280;15377;48.540;9.268;2022-10-26T10:49:01;97818.56;;;19.54;100.00
5284;BME280;15377;48.540;9.268;2022-10-26T10:51:29;97815.13;;;19.72;100.00
5284;BME280;15377;48.540;9.268;2022-10-26T10:53:59;97805.81;;;19.88;100.00
5284;BME280;15377;48.540;9.268;2022-10-26T10:56:34;97813.16;;;20.15;100.00
5284;BME280;15377;48.540;9.268;2022-10-26T10:59:40;97818.94;;;20.59;100.00
5284;BME280;15377;48.540;9.268;2022-10-26T11:04:55;97826.50;;;20.83;100.00
5284;BME280;15377;48.540;9.268;2022-10-26T11:07:24;97830.72;;;20.71;100.00
5284;BME280;15377;48.540;9.268;2022-10-26T11:09:52;97839.88;;;20.71;100.00
5284;BME280;15377;48.540;9.268;2022-10-26T11:12:24;97836.09;;;20.69;100.00
5284;BME280;15377;48.540;9.268;2022-10-26T11:14:57;97832.22;;;20.72;100.00
5284;BME280;15377;48.540;9.268;2022-10-26T11:17:35;97837.41;;;20.86;100.00
5284;BME280;15377;48.540;9.268;2022-10-26T11:20:05;97839.91;;;20.90;100.00
5284;BME280;15377;48.540;9.268;2022-10-26T11:22:41;97844.44;;;20.93;100.00
5284;BME280;15377;48.540;9.268;2022-10-26T11:25:18;97838.13;;;21.05;100.00
5284;BME280;15377;48.540;9.268;2022-10-26T11:27:53;97843.72;;;21.24;100.00
5284;BME280;15377;48.540;9.268;2022-10-26T11:30:22;97842.47;;;21.38;100.00
5284;BME280;15377;48.540;9.268;2022-10-26T11:33:00;97823.91;;;21.35;100.00
5284;BME280;15377;48.540;9.268;2022-10-26T11:35:39;97839.53;;;21.62;100.00
5284;BME280;15377;48.540;9.268;2022-10-26T11:38:26;97838.94;;;21.82;100.00
5284;BME280;15377;48.540;9.268;2022-10-26T11:44:18;97851.88;;;21.98;100.00
5284;BME280;15377;48.540;9.268;2022-10-26T11:46:50;97846.94;;;22.04;100.00
5284;BME280;15377;48.540;9.268;2022-10-26T11:49:23;97846.59;;;21.81;100.00
5284;BME280;15377;48.540;9.268;2022-10-26T11:52:18;97840.75;;;21.66;100.00
5284;BME280;15377;48.540;9.268;2022-10-26T11:57:16;97852.84;;;21.56;100.00
5284;BME280;15377;48.540;9.268;2022-10-26T11:59:56;97853.94;;;21.53;100.00
5284;BME280;15377;48.540;9.268;2022-10-26T12:02:23;97844.59;;;21.32;100.00
5284;BME280;15377;48.540;9.268;2022-10-26T12:07:32;97842.31;;;21.30;100.00
5284;BME280;15377;48.540;9.268;2022-10-26T12:10:02;97838.94;;;21.19;100.00
5284;BME280;15377;48.540;9.268;2022-10-26T12:12:34;97855.97;;;21.21;100.00
5284;BME280;15377;48.540;9.268;2022-10-26T12:15:24;97850.63;;;21.36;100.00
5284;BME280;15377;48.540;9.268;2022-10-26T12:18:09;97850.47;;;21.47;100.00
5284;BME280;15377;48.540;9.268;2022-10-26T12:20:53;97851.44;;;21.18;100.00
5284;BME280;15377;48.540;9.268;2022-10-26T12:23:21;97848.53;;;21.23;100.00
5284;BME280;15377;48.540;9.268;2022-10-26T12:25:47;97860.00;;;21.38;100.00
5284;BME280;15377;48.540;9.268;2022-10-26T12:28:37;97850.47;;;21.47;100.00
5284;BME280;15377;48.540;9.268;2022-10-26T12:33:56;97866.94;;;21.69;100.00
5284;BME280;15377;48.540;9.268;2022-10-26T12:39:34;97856.50;;;21.51;100.00
5284;BME280;15377;48.540;9.268;2022-10-26T13:00:14;97851.78;;;22.16;100.00
5284;BME280;15377;48.540;9.268;2022-10-26T13:03:12;97856.00;;;22.10;100.00
5284;BME280;15377;48.540;9.268;2022-10-26T13:08:26;97866.34;;;22.02;100.00
5284;BME280;15377;48.540;9.268;2022-10-26T13:11:06;97877.53;;;21.89;100.00
5284;BME280;15377;48.540;9.268;2022-10-26T13:13:38;97869.31;;;21.78;100.00
5284;BME280;15377;48.540;9.268;2022-10-26T13:16:04;97877.75;;;21.59;100.00
5284;BME280;15377;48.540;9.268;2022-10-26T13:18:41;97869.97;;;21.52;100.00
5284;BME280;15377;48.540;9.268;2022-10-26T13:23:39;97863.09;;;21.22;100.00
5284;BME280;15377;48.540;9.268;2022-10-26T13:33:50;97876.50;;;21.10;100.00
5284;BME280;15377;48.540;9.268;2022-10-26T13:36:32;97877.00;;;21.09;100.00
5284;BME280;15377;48.540;9.268;2022-10-26T13:39:05;97882.19;;;21.05;100.00
5284;BME280;15377;48.540;9.268;2022-10-26T13:41:39;97875.50;;;21.08;100.00
5284;BME280;15377;48.540;9.268;2022-10-26T13:44:15;97880.19;;;21.00;100.00
5284;BME280;15377;48.540;9.268;2022-10-26T13:46:43;97882.09;;;20.92;100.00
5284;BME280;15377;48.540;9.268;2022-10-26T13:49:49;97894.78;;;20.93;100.00
5284;BME280;15377;48.540;9.268;2022-10-26T13:52:21;97886.28;;;20.80;100.00
5284;BME280;15377;48.540;9.268;2022-10-26T13:54:55;97878.50;;;20.73;100.00
5284;BME280;15377;48.540;9.268;2022-10-26T13:57:38;97892.13;;;20.82;100.00
5284;BME280;15377;48.540;9.268;2022-10-26T14:00:20;97883.75;;;20.82;100.00
5284;BME280;15377;48.540;9.268;2022-10-26T14:02:45;97876.84;;;20.83;100.00
5284;BME280;15377;48.540;9.268;2022-10-26T14:05:16;97892.78;;;20.93;100.00
5284;BME280;15377;48.540;9.268;2022-10-26T14:07:46;97891.41;;;21.00;100.00
5284;BME280;15377;48.540;9.268;2022-10-26T14:10:36;97900.31;;;20.98;100.00
5284;BME280;15377;48.540;9.268;2022-10-26T14:13:06;97906.22;;;20.95;100.00
5284;BME280;15377;48.540;9.268;2022-10-26T14:15:33;97910.97;;;21.00;100.00
5284;BME280;15377;48.540;9.268;2022-10-26T14:18:00;97905.22;;;20.92;100.00
5284;BME280;15377;48.540;9.268;2022-10-26T14:20:29;97912.56;;;20.95;100.00
5284;BME280;15377;48.540;9.268;2022-10-26T14:22:55;97897.25;;;20.78;100.00
5284;BME280;15377;48.540;9.268;2022-10-26T14:25:24;97913.59;;;20.74;100.00
5284;BME280;15377;48.540;9.268;2022-10-26T14:27:50;97917.91;;;20.75;100.00
5284;BME280;15377;48.540;9.268;2022-10-26T14:32:44;97929.91;;;20.70;100.00
5284;BME280;15377;48.540;9.268;2022-10-26T14:35:13;97926.38;;;20.69;100.00
5284;BME280;15377;48.540;9.268;2022-10-26T14:37:45;97926.59;;;20.71;100.00
5284;BME280;15377;48.540;9.268;2022-10-26T14:40:18;97919.09;;;20.61;100.00
5284;BME280;15377;48.540;9.268;2022-10-26T14:42:44;97931.34;;;20.58;100.00
5284;BME280;15377;48.540;9.268;2022-10-26T14:45:34;97924.56;;;20.48;100.00
5284;BME280;15377;48.540;9.268;2022-10-26T14:48:02;97939.53;;;20.50;100.00
5284;BME280;15377;48.540;9.268;2022-10-26T14:50:28;97941.53;;;20.55;100.00
5284;BME280;15377;48.540;9.268;2022-10-26T14:53:04;97947.84;;;20.56;100.00
5284;BME280;15377;48.540;9.268;2022-10-26T14:55:48;97944.19;;;20.42;100.00
5284;BME280;15377;48.540;9.268;2022-10-26T14:58:28;97931.34;;;20.34;100.00
5284;BME280;15377;48.540;9.268;2022-10-26T15:01:31;97941.00;;;20.33;100.00
5284;BME280;15377;48.540;9.268;2022-10-26T15:04:02;97940.25;;;20.32;100.00
5284;BME280;15377;48.540;9.268;2022-10-26T15:09:03;97937.38;;;20.14;100.00
5284;BME280;15377;48.540;9.268;2022-10-26T15:11:31;97947.66;;;20.00;100.00
5284;BME280;15377;48.540;9.268;2022-10-26T15:13:58;97943.09;;;19.68;100.00
5284;BME280;15377;48.540;9.268;2022-10-26T15:16:26;97958.50;;;19.45;100.00
5284;BME280;15377;48.540;9.268;2022-10-26T15:18:59;97963.16;;;19.31;100.00